Time;durP1;ratioP1;P1;durP2;ratioP2;P2;SDS_P1;SDS_P2;PMS_P1;PMS_P2;Temp;Humidity;BMP_temperature;BMP_pressure;BME280_temperature;BME280_humidity;BME280_pressure;Samples;Min_cycle;Max_cycle;Signal;HPM_P1;HPM_P2
2023/07/27 00:02:56;;;;;;;9.40;8.50;;;;;;;26.89;43.12;94407.72;6144503;22;109380;-61
2023/07/27 00:05:59;;;;;;;8.97;8.27;;;;;;;26.85;43.47;94408.41;6101564;28;109041;-60
2023/07/27 00:09:04;;;;;;;8.90;8.30;;;;;;;26.85;43.92;94415.66;6094639;28;109272;-62
2023/07/27 00:12:07;;;;;;;8.03;7.43;;;;;;;26.80;43.86;94414.03;6111493;28;109110;-61
2023/07/27 00:15:11;;;;;;;8.03;7.43;;;;;;;26.89;43.12;94426.50;6111066;28;109830;-60
2023/07/27 00:18:14;;;;;;;8.57;7.87;;;;;;;26.82;43.85;94441.31;6127917;28;110191;-61
2023/07/27 00:21:17;;;;;;;8.67;7.87;;;;;;;26.77;43.69;94428.19;6091810;28;109288;-60
2023/07/27 00:24:21;;;;;;;8.17;7.50;;;;;;;26.75;43.89;94433.13;6115201;28;110005;-60
2023/07/27 00:27:24;;;;;;;7.70;6.93;;;;;;;26.60;43.11;94427.75;6117341;28;110295;-60
2023/07/27 00:30:28;;;;;;;6.97;6.27;;;;;;;26.63;42.66;94427.84;6139550;28;111948;-60
2023/07/27 00:33:31;;;;;;;6.63;5.60;;;;;;;26.53;42.19;94431.03;6107210;28;109183;-60
2023/07/27 00:36:34;;;;;;;5.70;5.30;;;;;;;26.43;42.03;94424.31;6109028;28;109279;-61
2023/07/27 00:39:39;;;;;;;7.70;5.27;;;;;;;26.46;41.45;94428.97;6114402;28;109074;-60
2023/07/27 00:42:42;;;;;;;5.13;4.73;;;;;;;26.45;41.47;94432.03;6106938;28;109525;-61
2023/07/27 00:45:47;;;;;;;4.87;4.47;;;;;;;26.44;41.58;94430.47;6107368;28;110017;-62
2023/07/27 00:48:50;;;;;;;4.90;4.57;;;;;;;26.41;42.01;94431.16;6107247;28;109259;-60
2023/07/27 00:51:54;;;;;;;5.00;4.60;;;;;;;26.30;41.66;94424.75;6108267;28;110753;-61
2023/07/27 00:54:59;;;;;;;4.77;4.40;;;;;;;26.29;41.63;94426.66;6092051;28;109733;-60
2023/07/27 00:58:03;;;;;;;4.73;4.33;;;;;;;26.19;41.85;94419.91;6118960;28;109775;-61
2023/07/27 01:01:07;;;;;;;4.63;4.17;;;;;;;26.24;41.83;94419.66;6113454;28;110267;-61
2023/07/27 01:04:10;;;;;;;4.87;4.40;;;;;;;26.06;42.05;94421.16;6118260;28;111115;-61
2023/07/27 01:10:50;;;;;;;5.07;4.67;;;;;;;26.09;41.85;94420.44;6123100;28;109117;-60
2023/07/27 01:13:59;;;;;;;4.17;3.80;;;;;;;26.07;42.02;94417.34;6109869;28;110752;-61
2023/07/27 01:17:10;;;;;;;5.30;3.47;;;;;;;26.13;41.13;94429.34;6104166;28;111243;-66
2023/07/27 01:20:25;;;;;;;3.80;3.50;;;;;;;26.13;41.33;94415.94;6121585;28;110369;-68
2023/07/27 01:23:46;;;;;;;3.13;2.93;;;;;;;26.07;41.15;94427.28;6127114;28;110274;-68
2023/07/27 01:27:19;;;;;;;4.30;2.50;;;;;;;25.97;40.89;94415.13;6129539;28;109276;-68
2023/07/27 01:30:40;;;;;;;3.23;2.53;;;;;;;25.95;41.00;94422.75;6115644;28;109592;-67
2023/07/27 01:33:49;;;;;;;2.47;2.27;;;;;;;25.87;40.91;94423.69;6110473;28;109095;-67
2023/07/27 01:36:59;;;;;;;3.17;2.40;;;;;;;25.85;40.83;94424.03;6115226;28;109091;-67
2023/07/27 01:40:04;;;;;;;2.43;2.23;;;;;;;25.82;40.48;94432.00;6102162;28;110191;-68
2023/07/27 01:43:10;;;;;;;2.70;2.50;;;;;;;25.74;40.67;94427.59;6124863;28;109276;-68
2023/07/27 01:46:16;;;;;;;2.83;2.53;;;;;;;25.79;40.37;94436.13;6116851;28;109620;-68
2023/07/27 01:49:20;;;;;;;2.80;2.60;;;;;;;25.76;40.93;94438.75;6128504;28;109155;-68
2023/07/27 01:52:25;;;;;;;4.00;2.53;;;;;;;25.65;40.62;94439.22;6118629;28;110722;-68
2023/07/27 01:55:31;;;;;;;2.80;2.60;;;;;;;25.59;40.72;94443.28;6113247;28;109398;-68
2023/07/27 01:58:36;;;;;;;3.00;2.80;;;;;;;25.66;40.54;94435.41;6113645;28;109124;-67
2023/07/27 02:01:43;;;;;;;3.10;2.90;;;;;;;25.54;41.06;94448.09;6124020;28;109326;-66
2023/07/27 02:04:48;;;;;;;4.97;2.90;;;;;;;25.63;40.95;94446.06;6109022;28;109255;-67
2023/07/27 02:07:51;;;;;;;3.90;2.90;;;;;;;25.99;40.50;94458.47;6122489;28;108845;-67
2023/07/27 02:10:58;;;;;;;3.60;3.30;;;;;;;26.25;40.38;94460.69;6116985;28;110215;-67
2023/07/27 02:14:07;;;;;;;3.53;2.70;;;;;;;26.40;40.08;94467.94;6118561;28;108998;-67
2023/07/27 02:17:21;;;;;;;3.40;3.10;;;;;;;26.53;39.95;94482.03;6123722;28;109215;-69
2023/07/27 02:20:27;;;;;;;4.30;3.00;;;;;;;26.57;40.33;94482.91;6113082;28;109803;-67
2023/07/27 02:23:32;;;;;;;3.73;3.27;;;;;;;26.67;39.90;94487.75;6114292;28;109292;-69
2023/07/27 02:26:35;;;;;;;4.40;3.30;;;;;;;26.72;39.62;94502.84;6118383;28;109232;-72
2023/07/27 02:29:38;;;;;;;3.80;3.17;;;;;;;26.73;40.13;94502.50;6113663;28;110115;-71
2023/07/27 02:32:43;;;;;;;4.00;3.70;;;;;;;26.73;40.14;94501.72;6122281;28;109821;-71
2023/07/27 02:35:46;;;;;;;3.40;3.20;;;;;;;26.75;40.08;94496.78;6118992;28;109130;-66
2023/07/27 02:38:49;;;;;;;4.03;3.73;;;;;;;26.76;39.43;94503.69;6121931;28;109863;-71
2023/07/27 02:41:52;;;;;;;4.33;3.97;;;;;;;26.77;39.63;94507.94;6114268;28;108984;-70
2023/07/27 02:44:55;;;;;;;4.07;3.77;;;;;;;26.83;39.61;94515.38;6112293;28;109143;-70
2023/07/27 02:48:00;;;;;;;5.03;4.23;;;;;;;26.84;39.83;94516.16;6102289;28;109242;-71
2023/07/27 02:51:03;;;;;;;4.63;4.23;;;;;;;26.84;39.66;94516.91;6112298;28;110387;-70
2023/07/27 02:54:06;;;;;;;4.70;4.40;;;;;;;26.88;39.27;94525.06;6134087;28;111369;-71
2023/07/27 02:57:09;;;;;;;4.33;4.13;;;;;;;26.93;39.24;94526.72;6124303;28;109428;-70
2023/07/27 03:00:13;;;;;;;6.17;4.90;;;;;;;26.90;39.68;94525.50;6109793;28;110256;-71
2023/07/27 03:03:18;;;;;;;6.50;5.43;;;;;;;26.91;39.24;94537.81;6119995;28;109175;-70
2023/07/27 03:06:21;;;;;;;7.57;5.13;;;;;;;26.89;39.51;94541.97;6119266;28;108978;-68
2023/07/27 03:09:24;;;;;;;5.90;5.00;;;;;;;26.98;39.58;94539.88;6130848;28;108804;-70
2023/07/27 03:12:27;;;;;;;6.10;5.60;;;;;;;26.71;38.44;94553.03;6102528;28;110138;-69
2023/07/27 03:15:30;;;;;;;5.73;5.23;;;;;;;26.30;39.02;94564.25;6113189;28;109301;-70
2023/07/27 03:18:35;;;;;;;5.80;5.30;;;;;;;26.43;39.35;94566.53;6116862;28;110107;-68
2023/07/27 03:21:38;;;;;;;5.97;5.47;;;;;;;26.64;38.61;94570.91;6124274;28;109180;-67
2023/07/27 03:24:41;;;;;;;6.07;5.57;;;;;;;26.77;38.90;94567.00;6131462;28;110265;-70
2023/07/27 03:27:44;;;;;;;6.30;5.90;;;;;;;26.83;38.94;94569.06;6134954;28;109118;-70
2023/07/27 03:30:47;;;;;;;8.17;7.57;;;;;;;26.88;39.18;94565.31;6130079;28;109428;-70
2023/07/27 03:33:52;;;;;;;9.87;9.07;;;;;;;26.92;39.34;94552.78;6101258;28;109248;-68
2023/07/27 03:36:56;;;;;;;8.40;7.80;;;;;;;26.98;39.57;94550.59;6120000;28;108815;-70
2023/07/27 03:39:59;;;;;;;8.70;6.93;;;;;;;26.95;39.15;94552.09;6097080;28;110251;-69
2023/07/27 03:43:03;;;;;;;6.50;6.00;;;;;;;26.98;38.83;94547.91;6112340;28;109349;-70
2023/07/27 03:46:06;;;;;;;7.77;6.60;;;;;;;26.99;38.75;94568.28;6108271;28;110116;-70
2023/07/27 03:49:10;;;;;;;7.00;6.20;;;;;;;27.00;38.43;94561.78;6118566;28;110166;-67
2023/07/27 03:52:13;;;;;;;6.43;5.93;;;;;;;27.04;38.71;94570.69;6121188;28;109336;-69
2023/07/27 03:55:18;;;;;;;5.77;5.40;;;;;;;27.03;37.74;94579.88;6116853;28;109831;-67
2023/07/27 03:58:22;;;;;;;7.47;5.40;;;;;;;27.06;38.04;94574.59;6111727;28;109047;-70
2023/07/27 04:01:25;;;;;;;6.73;5.10;;;;;;;27.08;38.34;94579.63;6111656;28;109133;-70
2023/07/27 04:04:29;;;;;;;9.30;5.13;;;;;;;27.09;38.02;94583.88;6133326;28;109304;-69
2023/07/27 04:07:33;;;;;;;4.73;4.43;;;;;;;27.11;37.51;94597.72;6106666;28;109469;-69
2023/07/27 04:10:36;;;;;;;5.30;5.00;;;;;;;27.12;37.37;94605.44;6122416;28;109709;-68
2023/07/27 04:13:39;;;;;;;5.40;5.00;;;;;;;27.17;37.03;94597.09;6121708;28;109129;-70
2023/07/27 04:16:42;;;;;;;4.87;4.47;;;;;;;27.22;37.11;94604.13;6123425;28;109151;-66
2023/07/27 04:19:46;;;;;;;4.57;4.20;;;;;;;27.24;37.10;94617.22;6106495;28;111749;-69
2023/07/27 04:22:49;;;;;;;5.57;4.87;;;;;;;27.24;37.14;94618.00;6119904;28;109386;-70
2023/07/27 04:25:52;;;;;;;4.43;4.10;;;;;;;27.26;37.02;94615.75;6115128;28;110196;-70
2023/07/27 04:28:55;;;;;;;4.33;4.03;;;;;;;27.24;36.59;94618.00;6113769;28;109593;-70
2023/07/27 04:31:59;;;;;;;4.63;4.23;;;;;;;27.30;36.46;94627.38;6104897;28;109120;-68
2023/07/27 04:35:03;;;;;;;4.73;4.20;;;;;;;27.19;35.32;94637.03;6133241;28;109271;-69
2023/07/27 04:38:07;;;;;;;4.33;3.90;;;;;;;27.09;35.37;94648.34;6138985;28;109710;-69
2023/07/27 04:41:10;;;;;;;3.63;3.33;;;;;;;27.07;35.75;94643.31;6128082;28;110177;-68
2023/07/27 04:44:13;;;;;;;4.07;3.77;;;;;;;27.04;36.37;94656.63;6109765;28;109198;-68
2023/07/27 04:47:16;;;;;;;4.57;4.17;;;;;;;27.03;35.99;94661.22;6114731;28;109217;-65
2023/07/27 04:50:20;;;;;;;8.27;4.60;;;;;;;27.02;35.58;94665.03;6115250;28;109037;-61
2023/07/27 04:53:24;;;;;;;5.20;4.70;;;;;;;26.98;35.65;94680.28;6104606;28;109773;-61
2023/07/27 04:56:27;;;;;;;4.53;4.13;;;;;;;27.02;35.11;94681.16;6121468;28;109338;-61
2023/07/27 04:59:30;;;;;;;3.53;3.33;;;;;;;27.02;35.37;94675.78;6137661;28;108927;-61
2023/07/27 05:02:33;;;;;;;3.50;3.20;;;;;;;27.03;35.28;94676.56;6137755;28;109560;-61
2023/07/27 05:05:43;;;;;;;3.87;3.43;;;;;;;27.02;35.50;94685.75;6127649;28;108941;-61
2023/07/27 05:08:46;;;;;;;5.83;3.40;;;;;;;26.98;35.23;94692.94;6090337;28;109119;-61
2023/07/27 05:11:49;;;;;;;5.23;3.50;;;;;;;26.95;34.85;94705.16;6099276;28;109163;-61
2023/07/27 05:14:52;;;;;;;3.50;3.20;;;;;;;26.96;34.78;94687.91;6110896;28;109272;-61
2023/07/27 05:17:55;;;;;;;6.47;3.90;;;;;;;27.01;35.04;94700.31;6107116;28;109286;-61
2023/07/27 05:21:00;;;;;;;8.93;4.20;;;;;;;27.05;35.19;94714.59;6115626;28;109058;-61
2023/07/27 05:24:03;;;;;;;4.90;4.40;;;;;;;27.04;35.29;94708.44;6137997;28;109402;-61
2023/07/27 05:27:06;;;;;;;4.00;3.70;;;;;;;27.08;35.32;94716.63;6127824;28;109590;-62
2023/07/27 05:30:10;;;;;;;4.20;3.70;;;;;;;27.08;34.94;94716.63;6134264;28;109245;-61
2023/07/27 05:33:13;;;;;;;4.50;3.47;;;;;;;27.03;35.49;94709.56;6109450;28;108699;-61
2023/07/27 05:36:18;;;;;;;5.90;3.27;;;;;;;27.08;35.22;94713.94;6113643;28;109341;-61
2023/07/27 05:39:21;;;;;;;3.73;3.40;;;;;;;27.08;35.38;94711.25;6103809;28;109088;-61
2023/07/27 05:42:24;;;;;;;4.00;3.70;;;;;;;27.07;35.04;94715.06;6126051;28;109300;-62
2023/07/27 05:45:27;;;;;;;3.83;3.53;;;;;;;27.09;34.58;94712.81;6138378;28;109586;-61
2023/07/27 05:48:33;;;;;;;3.60;3.30;;;;;;;27.08;35.21;94730.03;6116508;28;109250;-61
2023/07/27 05:51:37;;;;;;;3.57;3.30;;;;;;;27.07;35.06;94728.50;6103714;28;109814;-61
2023/07/27 05:54:41;;;;;;;3.90;3.37;;;;;;;27.07;34.63;94750.75;6113864;28;110229;-61
2023/07/27 05:57:44;;;;;;;3.47;3.17;;;;;;;27.10;35.18;94742.00;6113892;28;110170;-61
2023/07/27 06:00:47;;;;;;;4.50;3.70;;;;;;;27.10;34.72;94754.66;6108598;28;109152;-61
2023/07/27 06:03:50;;;;;;;3.67;3.30;;;;;;;27.10;34.59;94757.34;6113286;28;109676;-61
2023/07/27 06:07:10;;;;;;;3.10;2.90;;;;;;;27.12;34.40;94768.53;6122514;28;109294;-61
2023/07/27 06:10:13;;;;;;;3.70;3.50;;;;;;;27.13;35.17;94767.38;6137105;28;109208;-61
2023/07/27 06:13:17;;;;;;;3.23;3.03;;;;;;;27.14;34.27;94777.00;6127262;28;110041;-61
2023/07/27 06:16:20;;;;;;;3.27;2.97;;;;;;;27.12;34.64;94769.28;6136133;28;109146;-60
2023/07/27 06:19:23;;;;;;;3.30;3.00;;;;;;;27.14;34.77;94769.72;6136806;28;109077;-61
2023/07/27 06:22:28;;;;;;;2.83;2.63;;;;;;;27.13;34.77;94765.47;6119560;28;109312;-62
2023/07/27 06:25:31;;;;;;;3.03;2.83;;;;;;;27.08;34.18;94775.72;6112016;28;109135;-60
2023/07/27 06:28:35;;;;;;;2.73;2.53;;;;;;;27.08;34.35;94773.81;6112889;28;109495;-60
2023/07/27 06:31:38;;;;;;;4.53;3.00;;;;;;;27.09;33.79;94766.53;6111882;28;109480;-61
2023/07/27 06:34:41;;;;;;;2.87;2.67;;;;;;;27.08;34.25;94767.66;6102832;28;109481;-61
2023/07/27 06:37:46;;;;;;;3.37;3.07;;;;;;;27.12;33.72;94765.84;6124800;28;109268;-61
2023/07/27 06:40:49;;;;;;;2.67;2.47;;;;;;;26.99;33.13;94758.97;6136732;28;109338;-61
2023/07/27 06:43:52;;;;;;;2.60;2.00;;;;;;;26.67;32.82;94761.56;6136166;28;109447;-60
2023/07/27 06:46:55;;;;;;;2.90;1.90;;;;;;;26.57;32.73;94760.13;6120389;28;109646;-61
2023/07/27 06:49:58;;;;;;;4.40;2.03;;;;;;;26.32;32.53;94747.91;6112606;28;109122;-61
2023/07/27 06:53:03;;;;;;;4.07;2.13;;;;;;;26.33;32.23;94754.06;6112408;28;109244;-61
2023/07/27 06:56:06;;;;;;;2.00;1.77;;;;;;;26.34;32.33;94742.97;6107269;28;109458;-61
2023/07/27 06:59:10;;;;;;;2.00;1.90;;;;;;;26.34;32.14;94734.16;6106748;28;109506;-60
2023/07/27 07:02:13;;;;;;;2.80;2.53;;;;;;;26.46;31.57;94742.16;6111641;28;109145;-60
2023/07/27 07:05:16;;;;;;;2.67;2.47;;;;;;;26.51;31.88;94734.63;6111936;28;110174;-60
2023/07/27 07:08:20;;;;;;;3.20;2.20;;;;;;;26.44;31.65;94718.34;6102298;28;109639;-68
2023/07/27 07:11:24;;;;;;;4.20;1.80;;;;;;;26.44;31.92;94722.94;6112249;28;109275;-68
2023/07/27 07:14:27;;;;;;;2.70;1.97;;;;;;;26.47;32.06;94725.72;6136183;28;108995;-70
2023/07/27 07:17:30;;;;;;;2.93;2.00;;;;;;;26.58;31.53;94716.06;6125147;28;109809;-69
2023/07/27 07:20:33;;;;;;;2.20;2.00;;;;;;;26.82;32.47;94717.88;6102754;28;113072;-69
2023/07/27 07:23:37;;;;;;;3.07;1.97;;;;;;;26.99;32.15;94716.00;6112228;28;109140;-69
2023/07/27 07:26:40;;;;;;;2.67;2.37;;;;;;;27.09;32.86;94716.28;6112031;28;109267;-68
2023/07/27 07:29:44;;;;;;;2.30;2.10;;;;;;;27.16;32.89;94726.41;6112168;28;109126;-68
2023/07/27 07:32:47;;;;;;;1.70;1.60;;;;;;;27.20;32.40;94710.38;6110401;28;109460;-69
2023/07/27 07:35:50;;;;;;;2.80;1.97;;;;;;;27.27;32.76;94708.69;6135836;28;109097;-68
2023/07/27 07:38:55;;;;;;;2.23;2.03;;;;;;;27.30;32.44;94707.97;6135642;28;109127;-69
2023/07/27 07:41:59;;;;;;;4.43;2.00;;;;;;;27.32;32.53;94721.06;6129243;28;109165;-68
2023/07/27 07:45:02;;;;;;;3.73;1.90;;;;;;;27.46;32.80;94716.03;6139510;28;109137;-69
2023/07/27 07:48:05;;;;;;;3.80;2.40;;;;;;;27.53;32.74;94715.41;6135923;28;110437;-69
2023/07/27 07:51:10;;;;;;;3.03;2.80;;;;;;;27.59;32.43;94722.09;6140163;28;109039;-67
2023/07/27 07:54:15;;;;;;;2.87;2.67;;;;;;;27.65;33.28;94728.75;6130196;28;109290;-69
2023/07/27 07:57:20;;;;;;;3.27;2.60;;;;;;;27.65;32.97;94731.44;6135437;28;109333;-70
2023/07/27 08:00:23;;;;;;;2.80;2.10;;;;;;;27.65;32.58;94731.44;6115711;28;109269;-68
2023/07/27 08:03:27;;;;;;;2.20;2.00;;;;;;;27.64;32.68;94737.94;6127332;28;109484;-71
2023/07/27 08:06:30;;;;;;;2.87;2.50;;;;;;;27.67;32.35;94737.25;6129139;28;109166;-69
2023/07/27 08:09:36;;;;;;;2.70;2.40;;;;;;;27.65;32.45;94734.13;6139397;28;109300;-70
2023/07/27 08:12:39;;;;;;;2.23;2.07;;;;;;;27.67;33.12;94739.94;6139500;28;109140;-69
2023/07/27 08:15:51;;;;;;;2.00;1.73;;;;;;;27.67;32.42;94731.88;6134793;28;109859;-69
2023/07/27 08:18:54;;;;;;;3.17;2.10;;;;;;;27.67;32.49;94743.41;6112385;28;109155;-62
2023/07/27 08:21:58;;;;;;;2.40;2.10;;;;;;;27.70;33.11;94737.31;6115341;28;109529;-63
2023/07/27 08:25:04;;;;;;;3.17;2.20;;;;;;;27.68;33.04;94741.50;6115710;28;110165;-62
2023/07/27 08:28:23;;;;;;;2.00;1.90;;;;;;;27.73;32.79;94747.41;6105407;28;109128;-62
2023/07/27 08:31:27;;;;;;;2.53;2.17;;;;;;;27.79;32.91;94745.22;6115278;28;109113;-64
2023/07/27 08:34:30;;;;;;;2.07;1.90;;;;;;;27.82;32.88;94744.50;6114528;28;109271;-60
2023/07/27 08:37:33;;;;;;;8.03;7.43;;;;;;;27.87;32.53;94744.28;6119163;28;110339;-60
2023/07/27 08:40:38;;;;;;;20.97;19.33;;;;;;;27.87;32.53;94762.31;6128697;28;109801;-61
2023/07/27 08:43:41;;;;;;;22.73;21.23;;;;;;;27.89;32.49;94754.69;6130265;28;109047;-62
2023/07/27 08:46:46;;;;;;;19.30;17.80;;;;;;;27.88;32.42;94758.50;6114684;28;109607;-61
2023/07/27 08:49:50;;;;;;;13.67;12.60;;;;;;;27.91;32.84;94757.81;6110848;28;109531;-62
2023/07/27 08:52:53;;;;;;;10.00;9.20;;;;;;;27.93;33.13;94748.25;6109922;28;110342;-61
2023/07/27 08:55:58;;;;;;;8.10;7.60;;;;;;;27.92;32.07;94765.53;6114869;28;109580;-61
2023/07/27 08:59:02;;;;;;;6.93;6.43;;;;;;;27.95;32.35;94767.53;6114850;28;109259;-61
2023/07/27 09:02:05;;;;;;;6.47;5.97;;;;;;;27.95;32.65;94762.13;6105737;28;111930;-61
2023/07/27 09:05:11;;;;;;;6.07;5.57;;;;;;;27.92;32.95;94759.38;6113349;28;109044;-62
2023/07/27 09:08:15;;;;;;;5.17;4.70;;;;;;;27.92;32.59;94764.75;6114662;28;109661;-61
2023/07/27 09:11:21;;;;;;;6.63;3.53;;;;;;;27.95;32.57;94756.75;6114387;28;108954;-60
2023/07/27 09:14:24;;;;;;;3.87;3.43;;;;;;;27.96;32.91;94760.22;6121739;28;110442;-61
2023/07/27 09:17:27;;;;;;;4.13;3.83;;;;;;;27.97;33.01;94757.19;6138426;28;110229;-61
2023/07/27 09:20:31;;;;;;;3.00;2.80;;;;;;;27.98;33.35;94755.28;6138825;28;112621;-62
2023/07/27 09:23:34;;;;;;;2.40;2.20;;;;;;;27.99;33.26;94764.91;6134221;28;110323;-63
2023/07/27 09:26:46;;;;;;;4.40;2.43;;;;;;;27.99;32.98;94770.28;6132333;28;109240;-60
2023/07/27 09:29:58;;;;;;;2.73;2.43;;;;;;;27.96;32.84;94765.59;6118418;28;109400;-60
2023/07/27 09:33:05;;;;;;;2.67;2.47;;;;;;;27.99;32.92;94763.00;6114148;28;109252;-61
2023/07/27 09:36:11;;;;;;;2.63;1.97;;;;;;;28.01;32.89;94774.19;6102695;28;109283;-61
2023/07/27 09:39:16;;;;;;;2.27;2.00;;;;;;;28.00;32.51;94766.47;6113907;28;109124;-61
2023/07/27 09:42:23;;;;;;;3.57;1.87;;;;;;;28.02;32.72;94759.59;6113401;28;109350;-61
2023/07/27 09:45:26;;;;;;;4.80;2.03;;;;;;;28.03;33.37;94771.91;6113653;28;109223;-62
2023/07/27 09:48:29;;;;;;;4.03;1.90;;;;;;;28.07;33.29;94776.63;6111889;28;109139;-61
2023/07/27 09:51:35;;;;;;;2.97;1.87;;;;;;;28.04;32.86;94778.84;6137731;28;109132;-61
2023/07/27 09:54:38;;;;;;;6.83;2.00;;;;;;;28.01;32.80;94763.41;6138335;28;112104;-61
2023/07/27 09:57:44;;;;;;;2.67;1.80;;;;;;;27.96;32.83;94793.28;6133337;28;109371;-61
2023/07/27 10:00:47;;;;;;;1.90;1.60;;;;;;;27.96;33.16;94782.53;6132142;28;109205;-61
2023/07/27 10:03:52;;;;;;;4.20;2.00;;;;;;;27.98;32.41;94782.19;6136069;28;109730;-61
2023/07/27 10:06:55;;;;;;;2.00;1.77;;;;;;;27.97;32.57;94794.84;6137429;28;111091;-63
2023/07/27 10:10:27;;;;;;;4.23;2.00;;;;;;;27.95;32.60;94780.97;6109652;28;110291;-61
2023/07/27 10:13:39;;;;;;;3.20;2.00;;;;;;;28.00;32.75;94785.28;6119821;28;109179;-62
2023/07/27 10:16:57;;;;;;;3.03;2.10;;;;;;;28.03;33.21;94781.91;6134635;28;109001;-61
2023/07/27 10:20:21;;;;;;;2.70;1.90;;;;;;;28.04;33.11;94781.53;6113157;28;109343;-61
2023/07/27 10:23:28;;;;;;;2.60;1.83;;;;;;;28.03;33.21;94782.69;6107270;28;109444;-61
2023/07/27 10:26:51;;;;;;;4.13;1.93;;;;;;;28.03;33.20;94771.13;6113276;28;109276;-61
2023/07/27 10:30:11;;;;;;;6.67;2.10;;;;;;;28.05;33.75;94769.66;6113573;28;108718;-61
2023/07/27 10:33:19;;;;;;;3.23;1.70;;;;;;;28.05;33.39;94761.59;6105840;28;108770;-61
2023/07/27 10:36:23;;;;;;;3.60;1.93;;;;;;;28.07;33.52;94773.94;6136986;28;109063;-61
2023/07/27 10:39:30;;;;;;;2.70;1.50;;;;;;;28.03;33.33;94766.53;6124019;28;109066;-69
2023/07/27 10:42:35;;;;;;;2.67;2.17;;;;;;;28.03;33.11;94761.16;6112659;28;109248;-68
2023/07/27 10:45:39;;;;;;;7.50;2.23;;;;;;;28.02;33.02;94762.28;6103537;28;110047;-69
2023/07/27 10:48:57;;;;;;;2.60;2.07;;;;;;;28.00;33.17;94764.56;6112552;28;108961;-68
2023/07/27 10:52:01;;;;;;;4.37;1.80;;;;;;;27.99;33.40;94759.53;6112544;28;109749;-68
2023/07/27 10:55:05;;;;;;;3.93;2.27;;;;;;;27.94;33.37;94752.50;6104597;28;109661;-67
2023/07/27 10:58:10;;;;;;;2.70;2.03;;;;;;;27.96;33.79;94761.00;6128819;28;110050;-69
2023/07/27 11:01:15;;;;;;;2.53;2.20;;;;;;;27.95;33.76;94754.06;6135270;28;109106;-68
2023/07/27 11:04:19;;;;;;;2.53;2.20;;;;;;;27.94;33.79;94757.13;6111830;28;110100;-68
2023/07/27 11:07:30;;;;;;;2.23;1.80;;;;;;;27.93;33.34;94755.56;6112173;28;109193;-68
2023/07/27 11:10:33;;;;;;;2.37;2.07;;;;;;;27.93;33.78;94756.34;6136133;28;110588;-68
2023/07/27 11:13:36;;;;;;;2.80;2.03;;;;;;;27.93;33.30;94761.72;6116555;28;109127;-68
2023/07/27 11:16:41;;;;;;;2.57;2.37;;;;;;;27.93;33.39;94752.88;6116406;28;109471;-68
2023/07/27 11:19:47;;;;;;;2.90;2.03;;;;;;;27.93;33.21;94756.34;6106563;28;109273;-68
2023/07/27 11:22:52;;;;;;;2.80;2.17;;;;;;;27.92;33.53;94752.09;6130121;28;111222;-67
2023/07/27 11:25:56;;;;;;;2.50;2.30;;;;;;;27.91;32.99;94739.78;6140569;28;108895;-69
2023/07/27 11:29:00;;;;;;;3.10;2.23;;;;;;;27.92;33.00;94748.63;6136866;28;110216;-68
2023/07/27 11:32:06;;;;;;;2.40;2.00;;;;;;;27.90;33.31;94757.03;6130984;28;109667;-68
2023/07/27 11:35:09;;;;;;;2.10;2.00;;;;;;;27.91;33.97;94742.47;6116195;28;109106;-68
2023/07/27 11:38:13;;;;;;;2.40;2.20;;;;;;;27.93;33.43;94739.41;6116764;28;109247;-68
2023/07/27 11:41:16;;;;;;;3.17;2.20;;;;;;;27.89;33.75;94739.34;6105361;28;109165;-68
2023/07/27 11:44:40;;;;;;;2.30;2.10;;;;;;;27.88;32.98;94740.44;6116379;28;108699;-69
2023/07/27 11:47:44;;;;;;;2.63;2.20;;;;;;;27.87;33.30;94730.81;6117717;28;109300;-68
2023/07/27 11:50:48;;;;;;;2.73;2.53;;;;;;;27.88;33.42;94728.91;6115901;28;109228;-62
2023/07/27 11:53:51;;;;;;;1.93;1.83;;;;;;;27.85;33.68;94727.69;6126440;28;109724;-62
2023/07/27 11:56:56;;;;;;;2.70;1.90;;;;;;;27.87;33.20;94730.81;6139822;28;109179;-62
2023/07/27 12:00:01;;;;;;;2.90;2.70;;;;;;;27.86;33.59;94731.13;6140284;28;109091;-62
2023/07/27 12:03:05;;;;;;;2.73;2.53;;;;;;;27.86;33.29;94739.22;6134581;28;109013;-63
2023/07/27 12:06:25;;;;;;;2.80;2.60;;;;;;;27.86;32.99;94745.41;6126251;28;109421;-63
2023/07/27 12:09:28;;;;;;;6.17;5.70;;;;;;;27.86;32.97;94734.63;6116012;28;109486;-62
2023/07/27 12:12:31;;;;;;;4.30;3.90;;;;;;;27.87;33.26;94735.41;6114829;28;109271;-62
2023/07/27 12:15:40;;;;;;;3.90;3.60;;;;;;;27.86;33.35;94726.56;6123620;28;108933;-63
2023/07/27 12:18:45;;;;;;;2.63;2.43;;;;;;;27.82;33.72;94714.94;6139673;28;109038;-62
2023/07/27 12:21:51;;;;;;;4.67;2.80;;;;;;;27.85;33.75;94722.28;6136066;28;109439;-62
2023/07/27 12:24:57;;;;;;;4.27;2.50;;;;;;;27.89;33.16;94720.53;6125284;28;109331;-63
2023/07/27 12:28:21;;;;;;;3.73;2.50;;;;;;;27.93;33.62;94726.75;6109844;28;109317;-63
2023/07/27 12:31:26;;;;;;;6.80;2.60;;;;;;;27.92;32.59;94717.13;6112080;28;108890;-63
2023/07/27 12:34:34;;;;;;;2.80;2.60;;;;;;;27.89;33.17;94725.91;6112147;28;109718;-62
2023/07/27 12:37:58;;;;;;;2.40;2.20;;;;;;;27.85;32.47;94727.69;6105840;28;112222;-62
2023/07/27 12:41:21;;;;;;;3.27;2.40;;;;;;;27.83;32.27;94724.56;6091305;28;109230;-63
2023/07/27 12:44:24;;;;;;;2.57;2.37;;;;;;;27.83;32.76;94735.31;6099073;28;109628;-62
2023/07/27 12:47:27;;;;;;;3.40;2.50;;;;;;;27.82;32.52;94724.91;6115076;28;109140;-62
2023/07/27 12:50:32;;;;;;;3.00;2.57;;;;;;;27.82;32.52;94711.47;6104437;28;109056;-62
2023/07/27 12:53:35;;;;;;;2.90;2.40;;;;;;;27.80;32.31;94714.50;6114689;28;109129;-62
2023/07/27 12:56:38;;;;;;;2.53;2.33;;;;;;;27.77;32.46;94716.00;6114581;28;109165;-62
2023/07/27 12:59:42;;;;;;;4.13;2.10;;;;;;;27.71;31.45;94719.28;6109986;28;109093;-62
2023/07/27 13:02:45;;;;;;;5.70;2.47;;;;;;;27.74;32.02;94715.91;6108993;28;109385;-61
2023/07/27 13:05:50;;;;;;;2.80;2.60;;;;;;;27.76;32.01;94721.72;6126056;28;109102;-61
2023/07/27 13:08:54;;;;;;;2.90;2.60;;;;;;;27.77;31.56;94721.38;6118082;28;109236;-61
2023/07/27 13:11:58;;;;;;;2.50;2.23;;;;;;;27.80;31.89;94725.25;6104283;28;109325;-61
2023/07/27 13:15:02;;;;;;;3.03;2.00;;;;;;;27.80;31.96;94736.03;6113932;28;109342;-61
2023/07/27 13:18:06;;;;;;;2.17;1.97;;;;;;;27.80;31.64;94729.88;6114559;28;109584;-61
2023/07/27 13:21:12;;;;;;;4.83;2.63;;;;;;;27.82;31.49;94749.13;6114692;28;110000;-61
2023/07/27 13:24:15;;;;;;;2.97;2.50;;;;;;;27.81;31.83;94752.94;6103770;28;109310;-62
2023/07/27 13:27:18;;;;;;;2.33;2.13;;;;;;;27.81;31.99;94752.94;6114373;28;109263;-61
2023/07/27 13:30:21;;;;;;;3.77;2.30;;;;;;;27.79;30.84;94750.59;6114670;28;108761;-61
2023/07/27 13:33:25;;;;;;;3.07;2.27;;;;;;;27.77;31.57;94760.94;6111374;28;109158;-62
2023/07/27 13:36:29;;;;;;;3.67;1.93;;;;;;;27.80;31.31;94762.13;6107200;28;109577;-62
2023/07/27 13:39:38;;;;;;;2.27;2.07;;;;;;;27.81;31.49;94761.00;6096870;28;109073;-61
2023/07/27 13:42:41;;;;;;;3.10;2.23;;;;;;;27.82;31.78;94763.34;6114045;28;109396;-61
2023/07/27 13:45:44;;;;;;;3.13;2.27;;;;;;;27.80;31.61;94762.91;6119474;28;109578;-61
2023/07/27 13:48:48;;;;;;;7.10;2.10;;;;;;;27.83;32.50;94751.44;6137794;28;110222;-62
2023/07/27 13:51:52;;;;;;;5.70;3.60;;;;;;;27.84;32.20;94765.69;6113731;28;109276;-61
2023/07/27 13:54:55;;;;;;;6.60;3.40;;;;;;;27.82;31.71;94760.66;6113835;28;108807;-61
2023/07/27 13:57:59;;;;;;;2.60;2.40;;;;;;;27.73;30.00;94752.78;6104006;28;109630;-61
2023/07/27 14:01:02;;;;;;;5.00;2.03;;;;;;;27.55;29.02;94767.69;6113699;28;109216;-61
2023/07/27 14:04:05;;;;;;;3.80;2.77;;;;;;;27.42;27.63;94758.97;6114724;28;109141;-61
2023/07/27 14:07:11;;;;;;;7.80;7.27;;;;;;;27.43;28.66;94760.50;6132859;28;109019;-61
2023/07/27 14:10:14;;;;;;;8.53;7.83;;;;;;;27.33;28.24;94762.94;6114051;28;112062;-68
2023/07/27 14:13:18;;;;;;;6.43;5.80;;;;;;;27.35;28.43;94761.44;6112263;28;109027;-69
2023/07/27 14:16:21;;;;;;;3.60;3.30;;;;;;;27.40;28.61;94763.13;6108080;28;109559;-70
2023/07/27 14:19:25;;;;;;;6.07;3.13;;;;;;;27.45;28.39;94768.22;6111917;28;109086;-68
2023/07/27 14:22:34;;;;;;;6.37;3.70;;;;;;;27.55;29.53;94777.66;6133433;28;109237;-70
2023/07/27 14:25:38;;;;;;;3.60;2.90;;;;;;;27.67;29.63;94767.59;6137767;28;108848;-68